Time;durP1;ratioP1;P1;durP2;ratioP2;P2;SDS_P1;SDS_P2;PMS_P1;PMS_P2;Temp;Humidity;BMP_temperature;BMP_pressure;BME280_temperature;BME280_humidity;BME280_pressure;Samples;Min_cycle;Max_cycle;Signal;HPM_P1;HPM_P2
2022/04/16 00:01:19;;;;;;;17.52;14.93;;;;;;;10.10;65.67;102912.91;5046447;28;20145;-73
2022/04/16 00:03:45;;;;;;;17.05;14.95;;;;;;;9.94;65.99;102907.16;5032176;28;20061;-73
2022/04/16 00:06:11;;;;;;;18.98;15.55;;;;;;;10.02;65.63;102910.47;5057841;28;20037;-72
2022/04/16 00:08:36;;;;;;;17.10;15.30;;;;;;;9.86;66.12;102903.84;5067010;28;20446;-72
2022/04/16 00:11:06;;;;;;;15.88;14.23;;;;;;;9.94;66.06;102906.28;5033867;28;20061;-73
2022/04/16 00:13:34;;;;;;;16.50;14.80;;;;;;;9.89;65.74;102911.72;5033609;28;20028;-73
2022/04/16 00:16:00;;;;;;;17.55;14.07;;;;;;;9.88;66.21;102910.00;5053283;28;20021;-73
2022/04/16 00:18:26;;;;;;;18.80;14.65;;;;;;;9.82;66.63;102911.91;5069273;28;20031;-73
2022/04/16 00:20:54;;;;;;;15.93;14.27;;;;;;;9.78;66.44;102912.00;5050061;28;20025;-73
2022/04/16 00:23:21;;;;;;;16.77;14.90;;;;;;;9.75;66.38;102914.75;5038156;28;20125;-73
2022/04/16 00:25:50;;;;;;;16.85;14.00;;;;;;;9.66;66.64;102904.34;5033126;28;20020;-73
2022/04/16 00:28:19;;;;;;;19.25;14.95;;;;;;;9.68;66.83;102907.00;5034931;28;20029;-73
2022/04/16 00:30:47;;;;;;;16.27;14.57;;;;;;;9.74;66.91;102912.13;5053337;28;20549;-73
2022/04/16 00:33:18;;;;;;;16.70;14.52;;;;;;;9.67;67.05;102914.06;5051913;28;20040;-73
2022/04/16 00:35:46;;;;;;;19.13;15.85;;;;;;;9.72;66.72;102912.16;5048084;28;20485;-73
2022/04/16 00:38:11;;;;;;;18.30;15.25;;;;;;;9.60;67.41;102912.50;5032120;28;20028;-73
2022/04/16 00:40:38;;;;;;;18.85;15.52;;;;;;;9.62;67.11;102912.44;5048408;28;20026;-73
2022/04/16 00:43:05;;;;;;;17.15;15.43;;;;;;;9.49;67.87;102911.88;5048882;28;20100;-73
2022/04/16 00:45:33;;;;;;;18.88;15.73;;;;;;;9.40;67.88;102910.34;5049508;28;20041;-73
2022/04/16 00:47:59;;;;;;;20.42;16.30;;;;;;;9.46;67.90;102911.97;5053402;28;20021;-73
2022/04/16 00:50:25;;;;;;;21.73;17.88;;;;;;;9.40;68.18;102920.09;5053199;28;20051;-73
2022/04/16 00:52:51;;;;;;;19.33;17.08;;;;;;;9.35;67.98;102914.00;5051224;28;20032;-73
2022/04/16 00:55:17;;;;;;;18.20;15.77;;;;;;;9.33;68.05;102917.59;5041278;28;20020;-73
2022/04/16 00:57:43;;;;;;;20.50;16.52;;;;;;;9.36;68.25;102918.44;5031713;28;20021;-73
2022/04/16 01:00:11;;;;;;;17.98;16.00;;;;;;;9.26;68.58;102910.66;5058576;28;20543;-73
2022/04/16 01:02:37;;;;;;;18.38;15.43;;;;;;;9.25;68.61;102903.63;5032714;28;20029;-73
2022/04/16 01:05:07;;;;;;;18.55;16.55;;;;;;;9.37;68.48;102914.84;5047595;28;20021;-73
2022/04/16 01:07:33;;;;;;;18.70;15.77;;;;;;;9.41;67.98;102912.09;5032414;28;20504;-73
2022/04/16 01:09:59;;;;;;;22.25;16.52;;;;;;;9.33;68.27;102909.63;5033046;28;20021;-73
2022/04/16 01:12:26;;;;;;;18.50;16.13;;;;;;;9.27;68.69;102908.91;5045362;28;20106;-73
2022/04/16 01:14:52;;;;;;;19.90;16.27;;;;;;;9.21;68.97;102901.09;5031319;28;20527;-73
2022/04/16 01:17:18;;;;;;;21.20;16.85;;;;;;;9.17;69.01;102910.88;5040786;28;20049;-73
2022/04/16 01:19:43;;;;;;;18.83;16.88;;;;;;;9.20;69.09;102921.44;5048915;28;20025;-73
2022/04/16 01:22:12;;;;;;;20.10;16.80;;;;;;;9.19;69.12;102916.19;5038797;28;20041;-73
2022/04/16 01:24:38;;;;;;;18.58;16.67;;;;;;;9.04;69.50;102918.28;5031034;28;20025;-73
2022/04/16 01:27:04;;;;;;;18.90;16.92;;;;;;;9.08;69.08;102911.97;5051893;28;20038;-72
2022/04/16 01:29:32;;;;;;;20.23;17.15;;;;;;;9.19;69.11;102916.19;5040890;28;20517;-73
2022/04/16 01:32:02;;;;;;;20.58;17.77;;;;;;;9.03;69.61;102927.16;5034251;28;20049;-73
2022/04/16 01:34:29;;;;;;;22.70;16.85;;;;;;;9.08;69.49;102929.69;5031059;28;20091;-73
2022/04/16 01:36:54;;;;;;;22.25;18.23;;;;;;;9.04;69.75;102933.34;5031164;28;20025;-73
2022/04/16 01:39:20;;;;;;;23.35;17.83;;;;;;;8.95;69.59;102928.25;5047024;28;20092;-73
2022/04/16 01:41:46;;;;;;;23.25;19.42;;;;;;;8.99;70.04;102932.56;5041426;28;20016;-73
2022/04/16 01:44:14;;;;;;;21.42;18.48;;;;;;;8.96;70.24;102928.19;5050534;28;20473;-73
2022/04/16 01:46:40;;;;;;;21.45;18.90;;;;;;;8.91;70.39;102929.19;5030552;28;20033;-73
2022/04/16 01:49:05;;;;;;;22.92;19.63;;;;;;;8.90;70.31;102944.25;5041672;28;20044;-73
2022/04/16 01:51:34;;;;;;;21.80;19.45;;;;;;;8.89;70.34;102934.56;5056985;28;20029;-73
2022/04/16 01:53:59;;;;;;;21.08;18.77;;;;;;;8.94;70.56;102931.78;5046325;28;20030;-72
2022/04/16 01:56:25;;;;;;;23.80;19.48;;;;;;;8.87;71.02;102933.72;5064346;28;20025;-72
2022/04/16 01:58:53;;;;;;;21.80;19.42;;;;;;;8.80;70.83;102930.31;5047596;28;20057;-73
2022/04/16 02:01:20;;;;;;;24.65;20.25;;;;;;;8.85;71.23;102930.22;5046681;28;20025;-73
2022/04/16 02:03:46;;;;;;;22.60;19.50;;;;;;;8.82;71.06;102932.94;5031116;28;20476;-73
2022/04/16 02:06:12;;;;;;;22.05;19.38;;;;;;;8.79;71.03;102933.00;5036574;28;20063;-73
2022/04/16 02:08:38;;;;;;;24.38;19.63;;;;;;;8.76;71.24;102925.97;5051518;28;20493;-73
2022/04/16 02:11:05;;;;;;;23.25;20.30;;;;;;;8.84;71.00;102934.66;5030435;28;20029;-73
2022/04/16 02:13:31;;;;;;;23.27;19.77;;;;;;;8.80;70.89;102935.63;5034860;28;20049;-73
2022/04/16 02:15:57;;;;;;;24.65;19.45;;;;;;;8.81;71.29;102937.38;5051346;28;20488;-73
2022/04/16 02:18:23;;;;;;;24.80;20.55;;;;;;;8.78;71.29;102942.75;5031173;28;20021;-73
2022/04/16 02:20:49;;;;;;;23.65;20.20;;;;;;;8.81;71.40;102941.81;5035857;28;20052;-73
2022/04/16 02:23:16;;;;;;;22.60;20.13;;;;;;;8.72;71.45;102929.63;5050215;28;20111;-73
2022/04/16 02:25:45;;;;;;;25.92;19.95;;;;;;;8.60;72.03;102938.72;5030499;28;20030;-73
2022/04/16 02:28:11;;;;;;;23.23;19.65;;;;;;;8.60;72.23;102932.53;5035948;28;20032;-73
2022/04/16 02:30:40;;;;;;;23.23;19.58;;;;;;;8.59;71.92;102930.81;5036515;28;20086;-73
2022/04/16 02:33:06;;;;;;;25.40;20.10;;;;;;;8.61;72.16;102936.94;5064730;28;20582;-73
2022/04/16 02:35:32;;;;;;;24.42;20.25;;;;;;;8.53;72.40;102945.06;5032192;28;20017;-73
2022/04/16 02:37:58;;;;;;;24.20;19.50;;;;;;;8.51;72.60;102938.91;5029563;28;20031;-73
2022/04/16 02:40:23;;;;;;;26.75;21.00;;;;;;;8.46;72.80;102942.56;5033939;28;20087;-73
2022/04/16 02:42:49;;;;;;;23.70;20.50;;;;;;;8.44;72.88;102950.53;5038519;28;20034;-73
2022/04/16 02:48:02;;;;;;;24.98;21.33;;;;;;;8.51;72.74;102949.53;5031149;28;20117;-74
2022/04/16 02:50:28;;;;;;;24.65;20.30;;;;;;;8.45;72.68;102935.50;5030905;28;20108;-74
2022/04/16 02:52:58;;;;;;;24.15;20.92;;;;;;;8.56;72.31;102937.03;5045714;28;20376;-73
2022/04/16 02:55:24;;;;;;;24.50;19.90;;;;;;;8.48;72.10;102935.44;5032924;28;20025;-73
2022/04/16 02:57:50;;;;;;;25.08;20.60;;;;;;;8.45;72.45;102952.28;5031010;28;20107;-73
2022/04/16 03:00:16;;;;;;;28.25;21.17;;;;;;;8.36;72.52;102950.66;5031716;28;20112;-73
2022/04/16 03:02:45;;;;;;;25.45;20.77;;;;;;;8.33;72.58;102958.69;5030901;28;20037;-73
2022/04/16 03:05:11;;;;;;;25.00;21.88;;;;;;;8.30;73.04;102957.88;5033032;28;20025;-73
2022/04/16 03:07:37;;;;;;;28.83;21.30;;;;;;;8.16;73.17;102945.75;5031666;28;20050;-73
2022/04/16 03:10:05;;;;;;;25.48;20.88;;;;;;;8.20;73.41;102962.47;5044130;28;20029;-73
2022/04/16 03:12:46;;;;;;;23.00;19.77;;;;;;;8.25;72.99;102965.91;5046378;28;20468;-73
2022/04/16 03:17:58;;;;;;;24.58;20.80;;;;;;;8.26;72.69;102959.69;5033610;28;20072;-73
2022/04/16 03:20:25;;;;;;;24.98;20.38;;;;;;;8.23;72.87;102961.53;5033528;28;20387;-73
2022/04/16 03:22:50;;;;;;;26.10;20.95;;;;;;;8.20;72.82;102955.38;5033124;28;20041;-73
2022/04/16 03:25:16;;;;;;;26.77;22.80;;;;;;;8.13;73.71;102963.50;5033203;28;20547;-73
2022/04/16 03:27:42;;;;;;;27.00;21.85;;;;;;;8.11;73.72;102966.16;5047892;28;21713;-73
2022/04/16 03:30:12;;;;;;;26.73;22.52;;;;;;;8.11;73.41;102973.25;5034499;28;20086;-73
2022/04/16 03:32:39;;;;;;;26.33;21.85;;;;;;;8.06;73.37;102967.13;5051451;28;20033;-73
2022/04/16 03:35:07;;;;;;;25.70;21.17;;;;;;;7.99;73.34;102969.03;5033190;28;20079;-73
2022/04/16 03:37:38;;;;;;;26.45;21.77;;;;;;;7.95;73.82;102968.22;5031713;28;20365;-73
2022/04/16 03:40:05;;;;;;;25.65;22.08;;;;;;;7.87;73.95;102953.38;5032854;28;20482;-73
2022/04/16 03:42:33;;;;;;;26.48;22.02;;;;;;;7.74;74.20;102965.97;5041427;28;20079;-73
2022/04/16 03:45:00;;;;;;;25.92;22.60;;;;;;;7.78;74.50;102957.03;5036231;28;20036;-73
2022/04/16 03:47:27;;;;;;;26.80;23.00;;;;;;;7.90;74.34;102966.56;5053132;28;20124;-73
2022/04/16 03:49:52;;;;;;;26.60;22.30;;;;;;;7.91;74.14;102960.34;5048619;28;20476;-73
2022/04/16 03:52:20;;;;;;;28.77;22.77;;;;;;;7.95;74.09;102960.28;5033726;28;20051;-73
2022/04/16 04:00:14;;;;;;;28.90;23.88;;;;;;;7.86;74.37;102964.88;5050934;28;20047;-73
2022/04/16 04:02:42;;;;;;;31.58;22.55;;;;;;;7.81;74.56;102972.00;5059556;28;20036;-73
2022/04/16 04:05:08;;;;;;;26.77;23.05;;;;;;;7.81;74.48;102962.28;5052710;28;20033;-73
2022/04/16 04:07:38;;;;;;;27.58;22.20;;;;;;;7.78;74.93;102972.06;5020795;28;1235703;-73
2022/04/16 04:10:06;;;;;;;27.20;23.40;;;;;;;7.73;74.85;102970.38;5053731;28;20275;-73
2022/04/16 04:12:35;;;;;;;31.60;24.20;;;;;;;7.72;75.44;102970.41;5035605;28;20401;-73
2022/04/16 04:15:00;;;;;;;28.20;23.52;;;;;;;7.72;75.00;102973.06;5045790;28;20029;-73
2022/04/16 04:17:26;;;;;;;27.73;22.80;;;;;;;7.72;74.85;102971.25;5069251;28;20538;-73
2022/04/16 04:19:51;;;;;;;25.88;22.95;;;;;;;7.82;75.16;102979.06;5034261;28;20091;-73
2022/04/16 04:22:17;;;;;;;27.52;24.42;;;;;;;7.74;75.10;102982.72;5067621;28;20036;-73
2022/04/16 04:24:44;;;;;;;28.73;24.98;;;;;;;7.62;75.19;102987.34;5038748;28;20029;-73
2022/04/16 04:27:09;;;;;;;27.38;24.25;;;;;;;7.73;75.15;102990.69;5032252;28;20049;-73
2022/04/16 04:29:36;;;;;;;28.55;24.27;;;;;;;7.80;75.07;102996.78;5043254;28;20404;-73
2022/04/16 04:32:02;;;;;;;31.13;24.02;;;;;;;7.79;75.04;102993.22;5049236;28;20067;-73
2022/04/16 04:34:30;;;;;;;29.00;24.00;;;;;;;7.71;75.16;102997.78;5042820;28;20420;-73
2022/04/16 04:36:57;;;;;;;31.70;25.48;;;;;;;7.77;75.04;102995.03;5032627;28;20096;-73
2022/04/16 04:39:23;;;;;;;29.25;24.17;;;;;;;7.68;75.42;102995.19;5032877;28;20208;-73
2022/04/16 04:41:48;;;;;;;32.03;24.40;;;;;;;7.64;75.54;102991.69;5032079;28;20039;-73
2022/04/16 04:44:15;;;;;;;30.70;25.20;;;;;;;7.61;75.74;103001.47;5036176;28;20033;-73
2022/04/16 04:46:42;;;;;;;30.33;25.10;;;;;;;7.62;75.58;103008.53;5048547;28;20034;-73
2022/04/16 04:49:08;;;;;;;31.75;25.65;;;;;;;7.51;75.87;103011.34;5038612;28;20124;-73
2022/04/16 04:51:39;;;;;;;28.25;25.17;;;;;;;7.58;75.97;103006.81;5038977;28;20117;-74
2022/04/16 04:54:07;;;;;;;32.45;25.75;;;;;;;7.55;75.89;103013.03;5043050;28;20530;-73
2022/04/16 04:56:33;;;;;;;33.55;25.75;;;;;;;7.39;76.19;103016.84;5052019;28;20025;-73
2022/04/16 04:58:59;;;;;;;33.45;25.27;;;;;;;7.33;76.85;103020.44;5033850;28;20031;-72
2022/04/16 05:01:25;;;;;;;34.30;27.23;;;;;;;7.39;76.44;103003.59;5049968;28;20037;-72
2022/04/16 05:03:50;;;;;;;29.45;25.33;;;;;;;7.54;76.23;103016.59;5015077;28;20083;-72
2022/04/16 05:06:16;;;;;;;34.53;25.95;;;;;;;7.54;76.41;103021.88;5031501;28;20041;-72
2022/04/16 05:08:43;;;;;;;33.90;26.40;;;;;;;7.50;76.46;103023.72;5037753;28;20580;-72
2022/04/16 05:11:09;;;;;;;31.50;26.17;;;;;;;7.45;76.60;103028.19;5051491;28;20115;-72
2022/04/16 05:13:34;;;;;;;32.28;25.83;;;;;;;7.49;76.49;103024.59;5058938;28;20029;-72
2022/04/16 05:16:00;;;;;;;34.45;27.38;;;;;;;7.48;76.56;103033.44;5031091;28;20489;-72
2022/04/16 05:18:26;;;;;;;31.95;26.73;;;;;;;7.42;76.71;103022.94;5032584;28;20030;-72
2022/04/16 05:20:53;;;;;;;33.85;27.90;;;;;;;7.53;76.86;103033.38;5047537;28;20021;-72
2022/04/16 05:23:20;;;;;;;32.38;26.67;;;;;;;7.57;76.57;103035.09;5031946;28;20037;-72
2022/04/16 05:25:46;;;;;;;34.08;27.27;;;;;;;7.54;76.61;103035.13;5047125;28;20040;-72
2022/04/16 05:28:11;;;;;;;31.50;26.65;;;;;;;7.54;76.79;103036.91;5047067;28;20033;-72
2022/04/16 05:30:44;;;;;;;33.60;27.25;;;;;;;7.49;77.13;103039.59;5033412;28;20029;-72
2022/04/16 05:34:18;;;;;;;34.75;28.40;;;;;;;7.48;77.44;103033.44;5037220;28;20384;-72
2022/04/16 05:36:06;;;;;;;32.83;27.13;;;;;;;7.61;77.45;103049.16;5044342;28;20066;-72
2022/04/16 05:38:32;;;;;;;36.25;29.40;;;;;;;7.50;77.19;103038.72;5031298;28;20514;-72
2022/04/16 05:41:01;;;;;;;30.50;27.17;;;;;;;7.63;77.33;103042.94;5047453;28;20018;-72
2022/04/16 05:43:29;;;;;;;33.20;27.52;;;;;;;7.71;77.19;103046.34;5032252;28;20159;-72
2022/04/16 05:45:55;;;;;;;37.97;29.63;;;;;;;7.59;77.77;103035.03;5030681;28;20049;-72
2022/04/16 05:48:20;;;;;;;34.25;27.75;;;;;;;7.75;77.68;103044.50;5029998;28;20175;-72
2022/04/16 05:50:46;;;;;;;36.05;28.73;;;;;;;7.70;77.67;103047.22;5047821;28;20111;-72
2022/04/16 05:53:13;;;;;;;35.40;28.40;;;;;;;7.82;77.50;103046.16;5030181;28;20033;-72
2022/04/16 05:55:43;;;;;;;33.75;28.77;;;;;;;7.87;77.14;103046.97;5046790;28;20025;-72
2022/04/16 05:58:09;;;;;;;34.78;29.08;;;;;;;8.01;77.28;103051.16;5031777;28;20029;-72
2022/04/16 06:00:37;;;;;;;33.55;29.67;;;;;;;8.05;77.08;103061.69;5046069;28;20036;-72
2022/04/16 06:03:04;;;;;;;34.45;28.63;;;;;;;8.10;76.84;103053.66;5041048;28;20111;-72
2022/04/16 06:05:33;;;;;;;32.60;29.08;;;;;;;8.15;76.93;103068.59;5031308;28;20615;-72
2022/04/16 06:07:59;;;;;;;36.63;29.58;;;;;;;8.21;76.38;103067.59;5045838;28;20033;-72
2022/04/16 06:10:25;;;;;;;35.20;28.88;;;;;;;8.29;76.57;103081.59;5047004;28;20071;-72
2022/04/16 06:12:51;;;;;;;38.35;29.95;;;;;;;8.39;76.36;103080.56;5030395;28;20112;-72
2022/04/16 06:15:16;;;;;;;36.53;30.55;;;;;;;8.48;76.09;103087.47;5029939;28;20041;-72
2022/04/16 06:17:42;;;;;;;38.83;30.95;;;;;;;8.46;76.31;103076.00;5030128;28;20040;-72
2022/04/16 06:20:08;;;;;;;38.17;30.05;;;;;;;8.55;76.17;103073.19;5031318;28;20054;-72
2022/04/16 06:22:37;;;;;;;40.90;32.38;;;;;;;8.55;76.36;103088.22;5046054;28;20025;-72
2022/04/16 06:25:06;;;;;;;40.33;31.73;;;;;;;8.60;76.13;103094.34;5046707;28;20025;-72
2022/04/16 06:27:31;;;;;;;39.23;31.40;;;;;;;8.61;75.97;103088.97;5046363;28;20027;-72
2022/04/16 06:29:56;;;;;;;43.00;32.40;;;;;;;8.60;76.18;103078.41;5043543;28;20037;-72
2022/04/16 06:32:24;;;;;;;42.38;33.30;;;;;;;8.67;76.62;103087.13;5042294;28;20048;-72
2022/04/16 06:34:50;;;;;;;39.78;32.95;;;;;;;8.78;76.28;103093.09;5030108;28;20611;-72
2022/04/16 06:37:15;;;;;;;39.67;33.28;;;;;;;8.84;76.90;103087.69;5046126;28;20037;-72
2022/04/16 06:39:43;;;;;;;41.72;33.65;;;;;;;8.92;75.76;103091.06;5045845;28;20045;-72
2022/04/16 06:42:09;;;;;;;42.80;32.38;;;;;;;8.98;76.29;103087.41;5038277;28;20108;-72
2022/04/16 06:44:37;;;;;;;45.75;35.30;;;;;;;9.13;76.00;103100.38;5030800;28;20109;-72
2022/04/16 06:47:02;;;;;;;40.53;32.92;;;;;;;9.26;75.24;103098.31;5055183;28;20037;-71
2022/04/16 06:49:28;;;;;;;44.42;34.45;;;;;;;9.37;75.43;103093.66;5037759;28;20511;-72
2022/04/16 06:51:53;;;;;;;39.40;32.67;;;;;;;9.57;75.09;103095.88;5014959;28;20033;-72
2022/04/16 06:54:19;;;;;;;39.63;33.08;;;;;;;9.64;74.66;103094.81;5031521;28;20124;-71
2022/04/16 06:56:44;;;;;;;40.85;33.10;;;;;;;9.72;74.26;103087.53;5013400;28;20030;-72
2022/04/16 06:59:09;;;;;;;38.88;32.53;;;;;;;9.86;74.34;103094.34;5029244;28;20492;-71
2022/04/16 07:01:35;;;;;;;40.60;32.55;;;;;;;10.10;73.86;103092.84;5029577;28;20516;-72
2022/04/16 07:04:00;;;;;;;42.13;33.17;;;;;;;10.15;72.56;103098.94;5045816;28;20539;-71
2022/04/16 07:06:26;;;;;;;39.55;32.72;;;;;;;10.27;72.36;103095.13;5033023;28;20049;-71
2022/04/16 07:08:52;;;;;;;39.40;31.95;;;;;;;10.26;72.92;103094.19;5034134;28;20064;-71
2022/04/16 07:11:17;;;;;;;40.42;32.00;;;;;;;10.37;72.44;103101.94;5029682;28;20037;-71
2022/04/16 07:13:43;;;;;;;41.47;32.00;;;;;;;10.50;71.78;103097.16;5045655;28;20044;-71
2022/04/16 07:16:11;;;;;;;46.15;32.00;;;;;;;10.63;71.45;103109.25;5046127;28;20114;-72
2022/04/16 07:18:36;;;;;;;41.42;32.05;;;;;;;10.76;71.21;103100.00;5031328;28;20396;-72
2022/04/16 07:21:02;;;;;;;39.42;30.52;;;;;;;10.73;70.48;103094.75;5035763;28;20033;-72
2022/04/16 07:23:27;;;;;;;37.10;30.45;;;;;;;10.94;70.46;103103.06;5029047;28;20112;-72
2022/04/16 07:25:53;;;;;;;36.97;30.40;;;;;;;11.11;69.91;103103.44;5012467;28;20127;-72
2022/04/16 07:28:21;;;;;;;39.22;29.80;;;;;;;11.23;69.34;103102.22;5030092;28;20043;-72
2022/04/16 07:30:55;;;;;;;40.75;30.00;;;;;;;11.35;69.01;103104.50;5029131;28;20032;-72
2022/04/16 07:33:29;;;;;;;35.92;28.40;;;;;;;11.39;68.47;103106.19;5044644;28;20028;-72
2022/04/16 07:35:55;;;;;;;39.10;29.35;;;;;;;11.35;67.82;103102.75;5066123;28;20127;-72
2022/04/16 07:38:21;;;;;;;36.05;28.77;;;;;;;11.55;67.48;103110.13;5037402;28;20064;-72
2022/04/16 07:40:47;;;;;;;34.92;27.27;;;;;;;11.65;67.19;103104.50;5033710;28;20060;-72
2022/04/16 07:43:14;;;;;;;36.05;27.73;;;;;;;11.72;66.96;103104.25;5046602;28;20040;-72
2022/04/16 07:45:42;;;;;;;34.50;27.85;;;;;;;11.83;66.46;103112.81;5047231;28;20484;-73
2022/04/16 07:48:08;;;;;;;34.67;27.48;;;;;;;11.89;66.53;103116.22;5030098;28;20056;-73
2022/04/16 07:50:33;;;;;;;36.05;28.70;;;;;;;12.07;66.18;103104.09;5048241;28;20041;-73
2022/04/16 07:52:59;;;;;;;34.67;27.17;;;;;;;12.14;65.61;103103.81;5032502;28;20037;-72
2022/04/16 07:55:28;;;;;;;33.33;27.95;;;;;;;12.20;65.31;103103.59;5037587;28;20147;-72
2022/04/16 07:57:54;;;;;;;34.15;27.30;;;;;;;12.26;64.54;103102.53;5068237;28;20036;-72
2022/04/16 08:00:19;;;;;;;33.05;27.45;;;;;;;12.44;64.71;103109.94;5057167;28;20045;-72
2022/04/16 08:02:44;;;;;;;29.98;25.95;;;;;;;12.48;63.78;103114.22;5038436;28;20037;-72
2022/04/16 08:05:10;;;;;;;31.70;26.10;;;;;;;12.54;63.41;103110.47;5068643;28;20048;-72
2022/04/16 08:07:36;;;;;;;33.17;26.70;;;;;;;12.63;63.89;103119.97;5068422;28;20048;-73
2022/04/16 08:10:05;;;;;;;35.47;25.65;;;;;;;12.70;62.85;103117.00;5041080;28;20026;-72
2022/04/16 08:12:32;;;;;;;32.88;25.27;;;;;;;12.91;63.07;103122.50;5038867;28;20061;-73
2022/04/16 08:15:00;;;;;;;29.70;24.20;;;;;;;13.04;61.99;103121.13;5033797;28;20021;-72
2022/04/16 08:17:25;;;;;;;30.25;24.00;;;;;;;13.19;61.49;103117.03;5032701;28;20021;-72
2022/04/16 08:19:53;;;;;;;28.80;23.55;;;;;;;13.25;60.40;103121.25;5058863;28;20527;-72
2022/04/16 08:22:21;;;;;;;28.17;23.33;;;;;;;13.21;60.38;103101.81;5032185;28;20036;-72
2022/04/16 08:25:43;;;;;;;29.33;23.75;;;;;;;13.16;60.69;103107.31;5015908;28;20032;-73
2022/04/16 08:27:33;;;;;;;30.08;23.20;;;;;;;13.42;61.09;103102.81;5033412;28;20040;-73
2022/04/16 08:29:59;;;;;;;30.80;23.38;;;;;;;13.62;59.92;103116.28;5048758;28;20037;-73
2022/04/16 08:32:27;;;;;;;25.48;22.30;;;;;;;13.62;59.23;103123.44;5031142;28;20041;-72
2022/04/16 08:34:52;;;;;;;26.80;22.08;;;;;;;13.75;58.61;103121.13;5032289;28;20057;-72
2022/04/16 08:37:23;;;;;;;24.35;21.20;;;;;;;13.82;58.78;103122.63;5040455;28;20511;-72
2022/04/16 08:39:49;;;;;;;23.00;19.80;;;;;;;13.87;57.14;103128.66;5051568;28;20021;-73
2022/04/16 08:42:14;;;;;;;23.70;19.70;;;;;;;14.01;57.24;103118.28;5039332;28;20061;-72
2022/04/16 08:44:40;;;;;;;24.63;20.45;;;;;;;14.07;57.16;103134.06;5031685;28;20508;-72
2022/04/16 08:47:09;;;;;;;24.90;20.50;;;;;;;14.16;56.89;103132.81;5032968;28;20531;-72
2022/04/16 08:49:34;;;;;;;23.25;20.25;;;;;;;14.29;56.84;103127.81;5033039;28;20029;-73
2022/04/16 08:52:02;;;;;;;25.35;19.80;;;;;;;14.43;56.48;103124.56;5048607;28;20385;-73
2022/04/16 08:54:28;;;;;;;21.58;18.60;;;;;;;14.58;56.51;103129.28;5032398;28;20029;-73
2022/04/16 08:56:58;;;;;;;21.88;17.02;;;;;;;14.70;55.13;103138.59;5031418;28;20031;-73
2022/04/16 08:59:23;;;;;;;19.38;17.02;;;;;;;14.76;54.74;103131.19;5050583;28;20033;-73
2022/04/16 09:01:49;;;;;;;21.05;17.40;;;;;;;14.94;53.70;103129.50;5032856;28;20622;-73
2022/04/16 09:04:22;;;;;;;21.63;18.23;;;;;;;14.99;54.45;103118.53;5038497;28;20064;-73
2022/04/16 09:06:58;;;;;;;22.42;17.63;;;;;;;15.11;54.74;103120.66;5034371;28;20053;-73
2022/04/16 09:09:28;;;;;;;19.27;15.80;;;;;;;15.06;52.09;103121.81;5039125;28;20092;-73
2022/04/16 09:11:57;;;;;;;17.38;15.48;;;;;;;15.06;52.24;103129.84;5049369;28;20031;-73
2022/04/16 09:14:43;;;;;;;17.40;14.52;;;;;;;15.27;52.32;103130.69;5033884;28;20061;-73
2022/04/16 09:17:09;;;;;;;18.17;15.38;;;;;;;15.28;51.06;103127.06;5031916;28;20029;-73
2022/04/16 09:19:34;;;;;;;17.92;14.70;;;;;;;15.36;50.03;103114.19;5031252;28;20477;-73
2022/04/16 09:22:00;;;;;;;19.02;14.23;;;;;;;15.51;49.64;103123.31;5032320;28;20044;-73
2022/04/16 09:24:28;;;;;;;14.25;12.40;;;;;;;15.57;48.10;103112.28;5047399;28;20036;-73
2022/04/16 09:26:55;;;;;;;15.68;12.00;;;;;;;15.61;46.86;103095.97;5035633;28;20124;-73
2022/04/16 09:29:24;;;;;;;14.85;12.68;;;;;;;15.69;47.58;103113.56;5046755;28;20551;-73
2022/04/16 09:31:51;;;;;;;13.48;11.95;;;;;;;15.75;46.45;103111.44;5032432;28;20041;-73
2022/04/16 09:34:23;;;;;;;14.13;11.18;;;;;;;15.76;46.85;103118.53;5030808;28;20032;-72
2022/04/16 09:36:50;;;;;;;12.30;10.60;;;;;;;15.64;45.48;103117.28;5042038;28;20100;-72
2022/04/16 09:39:16;;;;;;;14.00;11.75;;;;;;;15.89;45.71;103105.41;5036058;28;20040;-73
2022/04/16 09:41:51;;;;;;;14.77;12.48;;;;;;;16.25;45.96;103104.50;5030958;28;20043;-73
2022/04/16 09:44:21;;;;;;;16.30;12.82;;;;;;;16.25;46.41;103110.72;5031469;28;20021;-73
2022/04/16 09:46:47;;;;;;;14.82;11.63;;;;;;;16.55;46.41;103110.94;5030839;28;20033;-72
2022/04/16 09:49:16;;;;;;;11.88;10.23;;;;;;;16.72;44.17;103101.16;5031493;28;20068;-73
2022/04/16 09:51:44;;;;;;;9.30;7.53;;;;;;;16.65;42.60;103099.72;5031816;28;20044;-72
2022/04/16 09:54:10;;;;;;;7.32;6.40;;;;;;;16.57;41.78;103108.19;5031396;28;20515;-72
2022/04/16 09:56:37;;;;;;;8.48;6.72;;;;;;;16.52;41.52;103105.75;5031566;28;20469;-72
2022/04/16 09:59:08;;;;;;;8.38;7.57;;;;;;;16.50;41.98;103110.34;5041364;28;20040;-72
2022/04/16 10:01:35;;;;;;;9.25;8.25;;;;;;;16.62;41.84;103111.53;5031584;28;20511;-73
2022/04/16 10:04:01;;;;;;;7.72;6.93;;;;;;;16.90;41.26;103110.09;5048149;28;20029;-73
2022/04/16 10:06:28;;;;;;;7.60;6.80;;;;;;;17.02;41.99;103102.22;5066769;28;20087;-73
2022/04/16 10:08:54;;;;;;;6.68;5.97;;;;;;;16.84;40.02;103084.41;5028720;28;20396;-73
2022/04/16 10:11:41;;;;;;;11.23;8.10;;;;;;;17.02;41.64;103095.97;5036081;28;20037;-73
2022/04/16 10:14:17;;;;;;;11.63;9.32;;;;;;;17.16;42.75;103095.22;5031085;28;20044;-73
2022/04/16 10:17:05;;;;;;;11.52;8.50;;;;;;;17.63;41.96;103089.00;5047274;28;20024;-73
2022/04/16 10:19:40;;;;;;;11.02;9.93;;;;;;;17.54;42.01;103087.72;5046702;28;20021;-73
2022/04/16 10:22:06;;;;;;;10.20;8.52;;;;;;;17.57;41.54;103086.66;5029694;28;20024;-73
2022/04/16 10:24:31;;;;;;;8.52;7.47;;;;;;;17.39;40.27;103083.19;5046821;28;20389;-73
2022/04/16 10:27:04;;;;;;;10.05;9.00;;;;;;;17.20;40.85;103092.28;5048818;28;20029;-73
2022/04/16 10:29:39;;;;;;;8.27;7.47;;;;;;;17.56;41.38;103085.81;5052176;28;20029;-73
2022/04/16 10:32:18;;;;;;;9.77;8.73;;;;;;;18.05;42.59;103095.56;5046543;28;20029;-73
2022/04/16 10:35:05;;;;;;;9.13;7.53;;;;;;;18.05;39.28;103098.28;5027024;28;20069;-73
2022/04/16 10:37:36;;;;;;;;;;;;;;;18.40;41.26;103093.47;5012802;28;20116;-73
2022/04/16 10:40:02;;;;;;;9.10;6.90;;;;;;;18.08;38.03;103096.25;5012302;28;20039;-73
2022/04/16 10:42:31;;;;;;;8.65;7.10;;;;;;;18.05;38.13;103091.06;5012178;28;20037;-73
2022/04/16 10:45:07;;;;;;;8.07;6.97;;;;;;;18.08;39.32;103087.31;5029038;28;20033;-73
2022/04/16 10:47:37;;;;;;;11.95;8.70;;;;;;;17.96;38.82;103083.53;5026636;28;20052;-72
2022/04/16 10:50:14;;;;;;;8.23;7.43;;;;;;;18.05;39.26;103087.50;5028033;28;20033;-73
2022/04/16 10:52:50;;;;;;;7.55;6.82;;;;;;;18.33;39.05;103087.59;5026053;28;20034;-73
2022/04/16 10:55:16;;;;;;;6.50;5.90;;;;;;;18.62;38.19;103098.44;5028054;28;20098;-73
2022/04/16 10:57:54;;;;;;;7.50;5.85;;;;;;;18.45;37.48;103093.22;5008769;28;20029;-72
2022/04/16 11:00:23;;;;;;;8.15;5.60;;;;;;;18.63;36.91;103086.69;5027402;28;20057;-73
2022/04/16 11:02:49;;;;;;;;;;;;;;;19.03;38.90;103086.91;5012348;28;21008;-73
2022/04/16 11:05:16;;;;;;;6.10;5.50;;;;;;;18.89;36.85;103084.25;5013394;28;20017;-72
2022/04/16 11:07:42;;;;;;;5.82;5.05;;;;;;;19.24;37.30;103080.19;5033213;28;20033;-72
2022/04/16 11:10:11;;;;;;;5.57;4.82;;;;;;;19.57;35.85;103092.44;5038604;28;20534;-72
2022/04/16 11:12:40;;;;;;;9.68;5.88;;;;;;;19.45;35.14;103088.72;5030430;28;20021;-73
2022/04/16 11:15:14;;;;;;;6.05;5.45;;;;;;;19.56;35.38;103089.84;5048968;28;20079;-73
2022/04/16 11:17:39;;;;;;;5.75;5.25;;;;;;;19.60;35.27;103081.44;5029830;28;20109;-72
2022/04/16 11:20:08;;;;;;;5.78;5.25;;;;;;;19.55;34.96;103088.97;5047377;28;20466;-72
2022/04/16 11:22:33;;;;;;;6.88;5.47;;;;;;;19.61;34.54;103083.16;5052129;28;20035;-72
2022/04/16 11:25:00;;;;;;;6.05;5.30;;;;;;;19.59;34.58;103074.31;5032432;28;20025;-72
2022/04/16 11:36:00;;;;;;;6.38;5.15;;;;;;;21.20;32.11;103071.31;5039715;28;20499;-72
2022/04/16 11:38:30;;;;;;;5.50;5.00;;;;;;;21.61;31.45;103072.84;5044146;28;20537;-72